Namur, Belgium
Current Conditions -  °F | °C
As of 3:50 PM on Wednesday 26 Nov 2014 (Local Time) from EBCI Reporting Station
Haze Haze  
Wind Chill: 45°   Ceiling: 600
Heat Index: 48°   Visibility: 2.8mi
Dew Point: 46°   Wind: 7mph
Humidity: 93%   Direction: 160°SSE
Pressure: 29.85"   Gusts: NA
Location:  50.46°N, 4.85°E
Report Text: EBCI 261450Z 16006KT 130V190 4500 BR SCT004 BKN006 09/08 Q1011 NOSIG
Loading
Personal Weather Stations






























Interactive Weather Map New forecast layout! Learn more

10-Day Weather Forecast

Advertisements
Track Severe Weather on mobile